createdAt,value
2017-11-06T00:01:29.265Z,6.80
2017-11-06T00:03:56.757Z,7.00
2017-11-06T00:06:24.277Z,7.47
2017-11-06T00:08:51.816Z,6.90
2017-11-06T00:11:19.321Z,8.50
2017-11-06T00:13:46.823Z,8.60
2017-11-06T00:16:19.761Z,7.77
2017-11-06T00:18:47.287Z,8.80
2017-11-06T00:21:14.794Z,8.40
2017-11-06T00:23:42.303Z,8.07
2017-11-06T00:26:09.795Z,10.70
2017-11-06T00:28:37.294Z,8.50
2017-11-06T00:31:04.794Z,8.50
2017-11-06T00:33:32.308Z,8.20
2017-11-06T00:35:59.809Z,8.53
2017-11-06T00:38:27.316Z,10.37
2017-11-06T00:40:54.828Z,11.20
2017-11-06T00:43:22.360Z,11.63
2017-11-06T00:45:49.893Z,9.60
2017-11-06T00:48:17.406Z,9.43
2017-11-06T00:50:44.936Z,8.20
2017-11-06T00:53:12.451Z,7.97
2017-11-06T00:55:39.957Z,9.53
2017-11-06T00:58:07.472Z,9.93
2017-11-06T01:00:35.070Z,10.97
2017-11-06T01:03:02.594Z,10.90
2017-11-06T01:05:30.383Z,9.33
2017-11-06T01:07:57.908Z,10.30
2017-11-06T01:10:25.424Z,8.90
2017-11-06T01:12:52.918Z,9.70
2017-11-06T01:15:20.418Z,8.87
2017-11-06T01:17:47.973Z,8.67
2017-11-06T01:20:15.485Z,8.03
2017-11-06T01:22:42.999Z,9.20
2017-11-06T01:25:10.503Z,8.87
2017-11-06T01:27:38.008Z,9.80
2017-11-06T01:30:05.532Z,10.20
2017-11-06T01:32:33.034Z,9.83
2017-11-06T01:35:00.572Z,12.10
2017-11-06T01:37:28.324Z,12.00
2017-11-06T01:39:55.823Z,10.63
2017-11-06T01:42:23.324Z,11.47
2017-11-06T01:44:50.851Z,10.83
2017-11-06T01:47:18.350Z,11.87
2017-11-06T01:49:45.843Z,11.53
2017-11-06T01:52:13.384Z,12.40
2017-11-06T01:54:40.890Z,11.07
2017-11-06T01:57:08.465Z,10.67
2017-11-06T01:59:35.973Z,10.87
2017-11-06T02:02:03.471Z,9.60
2017-11-06T02:04:30.997Z,10.60
2017-11-06T02:07:03.348Z,10.20
2017-11-06T02:09:30.850Z,10.43
2017-11-06T02:11:58.359Z,10.67
2017-11-06T02:14:25.865Z,10.23
2017-11-06T02:16:53.361Z,9.40
2017-11-06T02:19:20.850Z,9.40
2017-11-06T02:21:48.353Z,9.73
2017-11-06T02:24:15.846Z,9.70
2017-11-06T02:26:43.408Z,9.03
2017-11-06T02:29:10.965Z,9.53
2017-11-06T02:31:38.475Z,9.10
2017-11-06T02:34:05.970Z,9.43
2017-11-06T02:36:33.491Z,9.20
2017-11-06T02:39:00.984Z,9.60
2017-11-06T02:41:28.499Z,9.60
2017-11-06T02:43:56.010Z,9.73
2017-11-06T02:46:23.530Z,10.17
2017-11-06T02:48:51.941Z,9.20
2017-11-06T02:51:19.497Z,9.80
2017-11-06T02:53:46.993Z,10.30
2017-11-06T02:56:14.636Z,10.87
2017-11-06T02:58:42.182Z,10.90
2017-11-06T03:01:09.683Z,11.33
2017-11-06T03:03:37.220Z,10.40
2017-11-06T03:06:04.761Z,10.17
2017-11-06T03:08:32.268Z,11.13
2017-11-06T03:10:59.782Z,11.93
2017-11-06T03:13:27.311Z,11.07
2017-11-06T03:15:54.826Z,11.43
2017-11-06T03:18:22.332Z,12.30
2017-11-06T03:20:50.215Z,12.20
2017-11-06T03:23:17.733Z,10.70
2017-11-06T03:25:45.242Z,11.80
2017-11-06T03:28:12.747Z,11.20
2017-11-06T03:30:40.344Z,12.73
2017-11-06T03:33:07.852Z,12.37
2017-11-06T03:35:35.435Z,11.50
2017-11-06T03:38:02.941Z,12.07
2017-11-06T03:40:30.450Z,11.10
2017-11-06T03:42:57.953Z,11.17
2017-11-06T03:45:25.491Z,13.07
2017-11-06T03:47:53.013Z,11.93
2017-11-06T03:50:20.519Z,11.43
2017-11-06T03:52:48.027Z,11.70
2017-11-06T03:55:15.516Z,11.33
2017-11-06T03:57:43.030Z,11.77
2017-11-06T04:00:10.538Z,13.17
2017-11-06T04:02:38.034Z,12.37
2017-11-06T04:05:05.542Z,12.30
2017-11-06T04:07:33.066Z,11.83
2017-11-06T04:10:00.573Z,12.07
2017-11-06T04:12:28.079Z,12.83
2017-11-06T04:14:55.578Z,12.03
2017-11-06T04:17:23.094Z,12.40
2017-11-06T04:19:50.577Z,12.10
2017-11-06T04:22:18.066Z,12.47
2017-11-06T04:24:45.579Z,13.13
2017-11-06T04:27:13.081Z,12.30
2017-11-06T04:29:40.579Z,13.17
2017-11-06T04:32:08.889Z,13.40
2017-11-06T04:34:36.427Z,13.00
2017-11-06T04:37:03.926Z,13.60
2017-11-06T04:39:31.439Z,13.50
2017-11-06T04:41:58.942Z,24.90
2017-11-06T04:44:26.460Z,12.70
2017-11-06T04:46:53.967Z,14.40
2017-11-06T04:49:21.473Z,14.67
2017-11-06T04:51:48.998Z,14.70
2017-11-06T04:54:16.507Z,13.30
2017-11-06T04:56:43.999Z,12.83
2017-11-06T04:59:11.587Z,13.93
2017-11-06T05:01:39.091Z,13.43
2017-11-06T05:04:06.617Z,14.60
2017-11-06T05:06:34.120Z,14.20
2017-11-06T05:09:01.623Z,14.40
2017-11-06T05:11:29.134Z,14.33
2017-11-06T05:13:57.082Z,14.27
2017-11-06T05:16:24.587Z,14.30
2017-11-06T05:18:52.104Z,15.20
2017-11-06T05:21:19.623Z,14.67
2017-11-06T05:23:47.115Z,14.00
2017-11-06T05:26:14.627Z,18.67
2017-11-06T05:28:42.120Z,22.80
2017-11-06T05:31:09.619Z,14.90
2017-11-06T05:33:37.139Z,14.93
2017-11-06T05:36:04.646Z,16.23
2017-11-06T05:38:32.155Z,14.90
2017-11-06T05:40:59.695Z,15.80
2017-11-06T05:43:27.192Z,22.30
2017-11-06T05:45:54.689Z,23.77
2017-11-06T05:48:22.195Z,15.97
2017-11-06T05:50:49.697Z,16.60
2017-11-06T05:53:17.214Z,16.47
2017-11-06T05:55:44.722Z,16.17
2017-11-06T05:58:12.224Z,15.47
2017-11-06T06:00:39.758Z,14.87
2017-11-06T06:03:07.660Z,15.50
2017-11-06T06:05:35.323Z,14.20
2017-11-06T06:08:02.826Z,16.37
2017-11-06T06:10:30.338Z,15.40
2017-11-06T06:12:57.832Z,16.80
2017-11-06T06:15:25.333Z,14.60
2017-11-06T06:17:52.848Z,16.43
2017-11-06T06:20:20.352Z,16.17
2017-11-06T06:22:48.571Z,17.67
2017-11-06T06:25:16.108Z,16.63
2017-11-06T06:27:43.608Z,16.83
2017-11-06T06:30:11.121Z,18.47
2017-11-06T06:32:39.695Z,17.90
2017-11-06T06:35:07.190Z,16.97
2017-11-06T06:37:34.695Z,16.07
2017-11-06T06:40:02.203Z,17.00
2017-11-06T06:42:29.713Z,15.87
2017-11-06T06:44:57.219Z,15.77
2017-11-06T06:47:24.742Z,16.20
2017-11-06T06:49:52.250Z,17.57
2017-11-06T06:52:19.759Z,16.80
2017-11-06T06:54:47.270Z,17.90
2017-11-06T06:57:14.879Z,16.40
2017-11-06T06:59:42.394Z,15.77
2017-11-06T07:02:09.888Z,15.80
2017-11-06T07:04:37.400Z,20.60
2017-11-06T07:07:04.890Z,17.37
2017-11-06T07:09:32.416Z,17.47
2017-11-06T07:11:59.945Z,16.33
2017-11-06T07:14:27.459Z,16.30
2017-11-06T07:16:54.973Z,65.30
2017-11-06T07:19:22.477Z,60.90
2017-11-06T07:21:49.997Z,42.63
2017-11-06T07:24:17.503Z,31.67
2017-11-06T07:26:44.993Z,26.60
2017-11-06T07:29:12.519Z,23.10
2017-11-06T07:31:40.041Z,19.50
2017-11-06T07:34:07.585Z,17.57
2017-11-06T07:36:35.102Z,16.73
2017-11-06T07:39:02.611Z,14.70
2017-11-06T07:41:30.120Z,14.53
2017-11-06T07:43:57.638Z,16.57
2017-11-06T07:46:25.194Z,17.00
2017-11-06T07:48:52.710Z,16.87
2017-11-06T07:51:20.219Z,15.13
2017-11-06T07:53:47.738Z,15.67
2017-11-06T07:56:15.246Z,15.17
2017-11-06T07:58:42.820Z,15.27
2017-11-06T08:01:10.387Z,14.53
2017-11-06T08:03:37.937Z,15.00
2017-11-06T08:06:05.437Z,15.97
2017-11-06T08:08:32.954Z,16.33
2017-11-06T08:11:00.462Z,17.20
2017-11-06T08:13:27.978Z,16.37
2017-11-06T08:15:55.530Z,17.67
2017-11-06T08:18:23.033Z,15.43
2017-11-06T08:20:50.558Z,15.17
2017-11-06T08:23:18.068Z,16.00
2017-11-06T08:25:45.595Z,14.80
2017-11-06T08:28:13.096Z,16.33
2017-11-06T08:30:40.603Z,15.27
2017-11-06T08:33:08.237Z,16.63
2017-11-06T08:35:35.750Z,16.70
2017-11-06T08:38:03.276Z,16.87
2017-11-06T08:40:30.794Z,15.93
2017-11-06T08:42:58.290Z,14.57
2017-11-06T08:45:25.821Z,14.83
2017-11-06T08:47:53.339Z,15.37
2017-11-06T08:50:20.861Z,16.00
2017-11-06T08:52:48.365Z,14.37
2017-11-06T08:55:15.877Z,15.33
2017-11-06T08:57:43.393Z,18.60
2017-11-06T09:00:10.908Z,15.97
2017-11-06T09:02:38.433Z,16.33
2017-11-06T09:05:05.948Z,15.13
2017-11-06T09:07:33.469Z,13.93
2017-11-06T09:10:00.979Z,14.90
2017-11-06T09:12:28.493Z,15.30
2017-11-06T09:14:55.989Z,13.73
2017-11-06T09:17:23.490Z,15.23
2017-11-06T09:19:50.995Z,14.13
2017-11-06T09:22:18.592Z,14.80
2017-11-06T09:24:46.095Z,14.37
2017-11-06T09:27:13.610Z,15.47
2017-11-06T09:29:41.127Z,15.03
2017-11-06T09:32:08.645Z,14.97
2017-11-06T09:34:36.151Z,14.37
2017-11-06T09:37:03.640Z,13.43
2017-11-06T09:39:31.151Z,15.23
2017-11-06T09:41:58.666Z,15.20
2017-11-06T09:44:26.174Z,14.17
2017-11-06T09:46:53.718Z,14.40
2017-11-06T09:49:21.209Z,13.93
2017-11-06T09:51:48.716Z,14.30
2017-11-06T09:54:16.217Z,15.50
2017-11-06T09:56:43.736Z,13.07
2017-11-06T09:59:11.251Z,14.57
2017-11-06T10:01:38.781Z,15.13
2017-11-06T10:04:06.295Z,15.20
2017-11-06T10:06:33.798Z,15.43
2017-11-06T10:09:01.313Z,13.83
2017-11-06T10:11:28.816Z,13.77
2017-11-06T10:13:56.319Z,15.23
2017-11-06T10:16:23.831Z,13.50
2017-11-06T10:18:51.331Z,15.20
2017-11-06T10:21:18.831Z,13.70
2017-11-06T10:23:46.390Z,18.63
2017-11-06T10:26:13.932Z,13.43
2017-11-06T10:28:41.429Z,14.40
2017-11-06T10:31:08.977Z,14.03
2017-11-06T10:33:36.484Z,14.47
2017-11-06T10:36:03.994Z,14.87
2017-11-06T10:38:31.526Z,13.80
2017-11-06T10:40:59.027Z,14.17
2017-11-06T10:43:26.558Z,15.00
2017-11-06T10:45:54.111Z,14.87
2017-11-06T10:48:21.626Z,15.30
2017-11-06T10:50:49.130Z,14.50
2017-11-06T10:53:16.652Z,16.67
2017-11-06T10:55:44.152Z,15.23
2017-11-06T10:58:11.658Z,14.47
2017-11-06T11:00:39.168Z,15.03
2017-11-06T11:03:06.690Z,19.13
2017-11-06T11:05:34.189Z,15.73
2017-11-06T11:08:01.699Z,17.87
2017-11-06T11:10:29.195Z,16.30
2017-11-06T11:12:56.693Z,15.37
2017-11-06T11:15:24.214Z,21.27
2017-11-06T11:17:51.734Z,20.57
2017-11-06T11:20:19.248Z,18.60
2017-11-06T11:22:46.828Z,16.17
2017-11-06T11:25:14.373Z,15.60
2017-11-06T11:27:41.899Z,17.57
2017-11-06T11:30:09.408Z,19.70
2017-11-06T11:32:36.937Z,22.80
2017-11-06T11:35:04.502Z,18.87
2017-11-06T11:37:32.029Z,19.30
2017-11-06T11:39:59.540Z,19.00
2017-11-06T11:42:27.064Z,18.30
2017-11-06T11:44:54.577Z,19.17
2017-11-06T11:47:22.088Z,19.40
2017-11-06T11:49:49.580Z,16.67
2017-11-06T11:52:17.081Z,19.97
2017-11-06T11:54:44.594Z,16.60
2017-11-06T11:57:12.096Z,20.60
2017-11-06T11:59:39.604Z,20.70
2017-11-06T12:02:07.124Z,26.03
2017-11-06T12:04:34.649Z,17.50
2017-11-06T12:07:02.163Z,16.00
2017-11-06T12:09:29.688Z,14.20
2017-11-06T12:11:57.189Z,15.60
2017-11-06T12:14:24.728Z,13.73
2017-11-06T12:16:52.227Z,15.30
2017-11-06T12:19:19.742Z,14.70
2017-11-06T12:21:47.273Z,13.57
2017-11-06T12:24:14.806Z,14.40
2017-11-06T12:26:42.307Z,14.80
2017-11-06T12:29:09.836Z,14.50
2017-11-06T12:31:37.365Z,14.10
2017-11-06T12:34:04.890Z,13.90
2017-11-06T12:36:32.385Z,11.50
2017-11-06T12:38:59.938Z,10.87
2017-11-06T12:41:27.461Z,12.60
2017-11-06T12:43:54.958Z,12.40
2017-11-06T12:46:22.456Z,12.57
2017-11-06T12:48:49.977Z,12.67
2017-11-06T12:51:17.498Z,12.07
2017-11-06T12:53:45.065Z,11.60
2017-11-06T12:56:12.623Z,12.07
2017-11-06T12:58:40.258Z,11.00
2017-11-06T13:01:07.835Z,13.23
2017-11-06T13:03:35.359Z,12.30
2017-11-06T13:06:02.866Z,10.73
2017-11-06T13:08:30.382Z,14.40
2017-11-06T13:10:57.929Z,11.30
2017-11-06T13:13:25.487Z,11.67
2017-11-06T13:15:53.027Z,10.80
2017-11-06T13:18:20.556Z,11.80
2017-11-06T13:20:48.087Z,10.07
2017-11-06T13:23:15.624Z,10.73
2017-11-06T13:25:43.134Z,11.67
2017-11-06T13:28:10.651Z,13.67
2017-11-06T13:30:38.174Z,17.93
2017-11-06T13:33:05.687Z,12.13
2017-11-06T13:35:33.195Z,10.90
2017-11-06T13:38:00.704Z,10.83
2017-11-06T13:40:28.202Z,17.73
2017-11-06T13:42:55.709Z,13.20
2017-11-06T13:45:23.252Z,10.10
2017-11-06T13:47:50.748Z,8.47
2017-11-06T13:50:18.268Z,8.43
2017-11-06T13:52:45.782Z,7.97
2017-11-06T13:55:13.279Z,8.40
2017-11-06T13:57:40.812Z,11.23
2017-11-06T14:00:08.307Z,8.70
2017-11-06T14:02:35.822Z,7.00
2017-11-06T14:05:03.326Z,6.43
2017-11-06T14:07:30.831Z,7.97
2017-11-06T14:09:58.325Z,6.80
2017-11-06T14:12:25.839Z,7.30
2017-11-06T14:14:53.362Z,7.33
2017-11-06T14:17:20.880Z,7.27
2017-11-06T14:19:48.366Z,6.90
2017-11-06T14:22:15.891Z,6.87
2017-11-06T14:24:43.417Z,6.07
2017-11-06T14:27:10.920Z,5.97
2017-11-06T14:29:38.463Z,6.73
2017-11-06T14:32:05.958Z,6.13
2017-11-06T14:34:33.490Z,6.50
2017-11-06T14:37:00.999Z,5.83
2017-11-06T14:39:28.508Z,6.53
2017-11-06T14:41:56.018Z,7.00
2017-11-06T14:44:23.614Z,7.43
2017-11-06T14:46:51.133Z,7.93
2017-11-06T14:49:18.681Z,7.03
2017-11-06T14:51:46.178Z,6.50
2017-11-06T14:54:13.714Z,6.40
2017-11-06T14:56:41.207Z,7.53
2017-11-06T14:59:08.721Z,7.40
2017-11-06T15:01:36.239Z,6.00
2017-11-06T15:04:03.738Z,9.30
2017-11-06T15:06:31.245Z,7.90
2017-11-06T15:08:58.752Z,7.43
2017-11-06T15:11:26.273Z,7.70
2017-11-06T15:13:53.794Z,7.27
2017-11-06T15:16:21.318Z,6.50
2017-11-06T15:18:48.846Z,7.20
2017-11-06T15:21:16.344Z,6.80
2017-11-06T15:23:43.946Z,6.87
2017-11-06T15:26:11.497Z,5.73
2017-11-06T15:28:39.003Z,7.63
2017-11-06T15:31:06.491Z,7.53
2017-11-06T15:33:34.036Z,7.90
2017-11-06T15:36:01.563Z,8.47
2017-11-06T15:38:29.058Z,7.47
2017-11-06T15:40:56.550Z,7.37
2017-11-06T15:43:24.058Z,7.40
2017-11-06T15:45:51.571Z,7.83
2017-11-06T15:48:19.094Z,7.53
2017-11-06T15:50:46.624Z,8.10
2017-11-06T15:53:14.170Z,7.50
2017-11-06T15:55:41.689Z,7.60
2017-11-06T15:58:09.206Z,9.20
2017-11-06T16:00:36.716Z,9.97
2017-11-06T16:03:04.203Z,8.67
2017-11-06T16:05:31.697Z,7.20
2017-11-06T16:07:59.218Z,6.87
2017-11-06T16:10:26.720Z,6.70
2017-11-06T16:12:54.215Z,6.10
2017-11-06T16:15:21.710Z,6.00
2017-11-06T16:17:49.231Z,5.87
2017-11-06T16:20:16.718Z,5.53
2017-11-06T16:22:44.217Z,6.13
2017-11-06T16:25:11.708Z,7.60
2017-11-06T16:27:39.221Z,9.30
2017-11-06T16:30:06.706Z,5.47
2017-11-06T16:32:34.205Z,4.93
2017-11-06T16:35:01.723Z,6.00
2017-11-06T16:37:29.217Z,4.40
2017-11-06T16:39:56.703Z,5.57
2017-11-06T16:42:24.198Z,19.07
2017-11-06T16:44:51.702Z,5.70
2017-11-06T16:47:19.201Z,6.03
2017-11-06T16:49:46.711Z,5.03
2017-11-06T16:52:14.218Z,4.87
2017-11-06T16:54:41.742Z,4.87
2017-11-06T16:57:09.297Z,4.90
2017-11-06T16:59:36.801Z,4.97
2017-11-06T17:02:04.294Z,5.13
2017-11-06T17:04:31.827Z,4.67
2017-11-06T17:06:59.358Z,5.20
2017-11-06T17:09:26.873Z,6.00
2017-11-06T17:11:54.382Z,8.10
2017-11-06T17:14:21.906Z,15.67
2017-11-06T17:16:49.410Z,17.20
2017-11-06T17:19:16.940Z,11.10
2017-11-06T17:21:44.486Z,25.90
2017-11-06T17:24:12.032Z,13.70
2017-11-06T17:26:39.587Z,8.77
2017-11-06T17:29:07.127Z,11.13
2017-11-06T17:31:34.752Z,7.90
2017-11-06T17:34:02.259Z,5.97
2017-11-06T17:36:29.767Z,6.03
2017-11-06T17:38:57.278Z,6.10
2017-11-06T17:41:24.790Z,8.60
2017-11-06T17:43:52.299Z,5.87
2017-11-06T17:46:19.957Z,6.07
2017-11-06T17:48:47.515Z,7.10
2017-11-06T17:51:15.014Z,4.80
2017-11-06T17:53:42.511Z,5.13
2017-11-06T17:56:10.007Z,5.30
2017-11-06T17:58:37.522Z,4.03
2017-11-06T18:01:05.042Z,5.97
2017-11-06T18:03:32.583Z,6.10
2017-11-06T18:06:00.110Z,4.70
2017-11-06T18:08:27.659Z,5.90
2017-11-06T18:10:55.210Z,5.47
2017-11-06T18:13:22.859Z,4.43
2017-11-06T18:15:50.373Z,4.90
2017-11-06T18:18:17.898Z,28.17
2017-11-06T18:20:45.416Z,5.10
2017-11-06T18:23:12.928Z,3.73
2017-11-06T18:25:40.496Z,4.13
2017-11-06T18:28:08.008Z,4.90
2017-11-06T18:30:35.546Z,4.60
2017-11-06T18:33:03.062Z,5.00
2017-11-06T18:35:30.671Z,4.00
2017-11-06T18:37:58.209Z,4.70
2017-11-06T18:40:25.711Z,3.67
2017-11-06T18:42:53.246Z,3.47
2017-11-06T18:45:20.798Z,4.20
2017-11-06T18:47:48.312Z,4.20
2017-11-06T18:50:15.979Z,4.37
2017-11-06T18:52:43.508Z,4.07
2017-11-06T18:55:11.003Z,4.20
2017-11-06T18:57:38.483Z,4.30
2017-11-06T19:00:06.068Z,4.20
2017-11-06T19:02:33.579Z,4.40
2017-11-06T19:05:01.087Z,5.13
2017-11-06T19:07:28.619Z,4.80
2017-11-06T19:09:56.141Z,4.30
2017-11-06T19:12:23.697Z,4.60
2017-11-06T19:14:51.235Z,4.10
2017-11-06T19:17:18.758Z,4.90
2017-11-06T19:19:46.272Z,5.27
2017-11-06T19:22:13.831Z,5.00
2017-11-06T19:24:41.403Z,4.43
2017-11-06T19:27:09.255Z,4.23
2017-11-06T19:29:37.121Z,4.70
2017-11-06T19:32:04.669Z,3.03
2017-11-06T19:34:32.211Z,4.63
2017-11-06T19:36:59.747Z,3.47
2017-11-06T19:39:27.246Z,4.13
2017-11-06T19:41:54.765Z,5.23
2017-11-06T19:44:22.276Z,6.70
2017-11-06T19:46:49.823Z,15.83
2017-11-06T19:49:17.355Z,15.80
2017-11-06T19:51:44.946Z,7.30
2017-11-06T19:54:13.297Z,12.40
2017-11-06T19:56:40.819Z,10.50
2017-11-06T19:59:08.371Z,8.73
2017-11-06T20:01:35.899Z,7.20
2017-11-06T20:04:03.748Z,8.50
2017-11-06T20:06:31.937Z,26.83
2017-11-06T20:08:59.902Z,16.27
2017-11-06T20:11:27.879Z,7.53
2017-11-06T20:13:55.738Z,7.93
2017-11-06T20:16:23.606Z,8.43
2017-11-06T20:18:51.573Z,7.17
2017-11-06T20:21:19.438Z,11.90
2017-11-06T20:23:47.611Z,9.40
2017-11-06T20:26:15.450Z,6.73
2017-11-06T20:28:43.345Z,7.20
2017-11-06T20:31:11.219Z,8.57
2017-11-06T20:33:39.190Z,6.83
2017-11-06T20:36:07.256Z,6.90
2017-11-06T20:38:35.226Z,6.27
2017-11-06T20:41:03.097Z,5.73
2017-11-06T20:43:31.157Z,5.20
2017-11-06T20:45:59.128Z,5.33
2017-11-06T20:48:26.993Z,6.90
2017-11-06T20:50:54.835Z,5.60
2017-11-06T20:53:22.724Z,4.53
2017-11-06T20:55:50.587Z,5.10
2017-11-06T20:58:18.136Z,5.03
2017-11-06T21:00:45.677Z,5.23
2017-11-06T21:03:13.221Z,5.63
2017-11-06T21:05:40.741Z,6.47
2017-11-06T21:08:08.251Z,6.87
2017-11-06T21:10:35.948Z,7.70
2017-11-06T21:13:03.503Z,8.10
2017-11-06T21:15:31.011Z,9.10
2017-11-06T21:17:58.529Z,10.97
2017-11-06T21:20:26.028Z,13.00
2017-11-06T21:22:53.537Z,12.60
2017-11-06T21:25:21.039Z,9.80
2017-11-06T21:27:48.562Z,8.03
2017-11-06T21:30:21.747Z,7.90
2017-11-06T21:32:49.296Z,6.97
2017-11-06T21:35:16.804Z,5.67
2017-11-06T21:37:44.288Z,5.90
2017-11-06T21:40:11.844Z,5.00
2017-11-06T21:42:39.439Z,6.20
2017-11-06T21:45:07.579Z,8.37
2017-11-06T21:47:35.111Z,5.80
2017-11-06T21:50:02.602Z,7.30
2017-11-06T21:52:30.115Z,9.80
2017-11-06T21:54:57.632Z,6.23
2017-11-06T21:57:25.128Z,7.17
2017-11-06T21:59:52.625Z,8.17
2017-11-06T22:02:20.141Z,10.30
2017-11-06T22:04:47.658Z,9.80
2017-11-06T22:07:15.161Z,7.10
2017-11-06T22:09:42.687Z,7.70
2017-11-06T22:12:10.182Z,7.03
2017-11-06T22:14:37.692Z,7.50
2017-11-06T22:17:05.188Z,6.67
2017-11-06T22:19:32.694Z,9.00
2017-11-06T22:22:00.219Z,8.63
2017-11-06T22:24:27.719Z,9.90
2017-11-06T22:26:55.224Z,9.40
2017-11-06T22:29:22.720Z,10.33
2017-11-06T22:31:50.227Z,6.93
2017-11-06T22:34:17.744Z,7.03
2017-11-06T22:36:45.242Z,8.20
2017-11-06T22:39:12.754Z,9.47
2017-11-06T22:41:40.284Z,12.00
2017-11-06T22:44:07.775Z,9.57
2017-11-06T22:46:35.277Z,9.63
2017-11-06T22:49:02.780Z,7.47
2017-11-06T22:51:30.274Z,8.80
2017-11-06T22:53:57.777Z,6.60
2017-11-06T22:56:25.295Z,9.00
2017-11-06T22:58:52.818Z,7.67
2017-11-06T23:01:20.339Z,7.80
2017-11-06T23:03:47.846Z,8.40
2017-11-06T23:06:15.372Z,7.37
2017-11-06T23:08:42.868Z,7.30
2017-11-06T23:11:10.366Z,6.70
2017-11-06T23:13:37.868Z,7.33
2017-11-06T23:16:05.392Z,6.60
2017-11-06T23:18:32.889Z,7.40
2017-11-06T23:21:00.384Z,6.53
2017-11-06T23:23:27.886Z,6.63
2017-11-06T23:25:55.399Z,6.53
2017-11-06T23:28:22.898Z,7.73
2017-11-06T23:30:50.427Z,6.50
2017-11-06T23:33:17.965Z,7.30
2017-11-06T23:35:45.471Z,6.70
2017-11-06T23:38:12.973Z,7.07
2017-11-06T23:40:40.474Z,8.00
2017-11-06T23:43:07.982Z,7.37
2017-11-06T23:45:35.482Z,7.10
2017-11-06T23:48:02.970Z,6.97
2017-11-06T23:50:30.461Z,7.07
2017-11-06T23:52:57.966Z,5.80
2017-11-06T23:55:25.458Z,6.90
2017-11-06T23:57:52.949Z,7.10
